Condor Express — WDG7544 — position and weather

sailwx.info

Track history (hours):
 
Tides and Currents Weather Stations Pressure Air Temp Water Temp Dewpoint Dewpoint Depression Visibility Wind Speed Wind Dir Waves Ship Positions

Condor Express

Owner: H & M Landing Inc, Santa Barbara, CA. More information available from US FCC via Universal Licensing System and Coast Guard Vessel Documentation Center.

Last reported at 2018-Jun-25 14:04 UTC. Time now 2018-Jun-25 15:47 UTC.
Position N 34°24' W 119°42'.

Length 23 m.

Type: Ship. MMSI: 367568350.

Date/timePositionNaut miles runAvg speedWind from/ knotsBaromVisibWave heightAir tempDewpointWater temp
2018-Jun-25 14:04N 34°24' W 119°42'0 0.0
2018-Jun-25 10:58N 34°24' W 119°42'0 0.0
2018-Jun-25 08:34N 34°24' W 119°42'0 0.0
2018-Jun-25 08:28N 34°24' W 119°42'0 0.0
2018-Jun-25 05:22N 34°24' W 119°42'0 0.0
2018-Jun-24 21:07N 34°24' W 119°42'0 0.0
2018-Jun-24 20:34N 34°24' W 119°42'0 0.0
2018-Jun-24 20:28N 34°24' W 119°42'0 0.0
2018-Jun-24 12:49N 34°24' W 119°42'0 0.0
2018-Jun-24 12:19N 34°24' W 119°42'0 0.0
2018-Jun-24 10:34N 34°24' W 119°42'0 0.0
2018-Jun-24 08:31N 34°24' W 119°42'0 0.0
2018-Jun-24 05:16N 34°24' W 119°42'0 0.0
2018-Jun-23 23:34N 34°24' W 119°42'0 0.0
2018-Jun-23 21:27N 34°24' W 119°42'713.3
2018-Jun-23 20:56N 34°18' W 119°42'817.8
2018-Jun-23 20:30N 34°10' W 119°43'3 4.0
2018-Jun-23 19:50N 34°07' W 119°43'1 1.9
2018-Jun-23 19:23N 34°07' W 119°42'1 2.3
2018-Jun-23 19:00N 34°08' W 119°42'6 7.9
2018-Jun-23 18:16N 34°14' W 119°40'715.7
2018-Jun-23 17:51N 34°20' W 119°40'4 3.0
2018-Jun-23 16:23N 34°24' W 119°42'0 0.0
2018-Jun-23 15:56N 34°24' W 119°42'0 0.0
2018-Jun-23 14:23N 34°24' W 119°42'0 0.0
2018-Jun-23 10:05N 34°24' W 119°42'0 0.0
2018-Jun-23 09:59N 34°24' W 119°42'0 0.0
2018-Jun-23 09:20N 34°24' W 119°42'0 0.0
2018-Jun-22 21:20N 34°24' W 119°41'617.4
2018-Jun-22 21:00N 34°19' W 119°42'917.3
2018-Jun-22 20:29N 34°10' W 119°45'4 5.9
2018-Jun-22 19:52N 34°06' W 119°45'1 1.8
2018-Jun-22 19:30N 34°07' W 119°44'3 5.2
2018-Jun-22 18:54N 34°06' W 119°40'5 8.6
2018-Jun-22 18:16N 34°12' W 119°41'615.6
2018-Jun-22 17:54N 34°18' W 119°41'510.3
2018-Jun-22 17:28N 34°22' W 119°41'3 3.2
2018-Jun-22 16:40N 34°24' W 119°42'0 0.0
2018-Jun-22 14:40N 34°24' W 119°42'0 0.0
2018-Jun-22 14:22N 34°24' W 119°42'0 0.0
2018-Jun-22 13:58N 34°24' W 119°42'0 0.0
2018-Jun-22 10:04N 34°24' W 119°42'0 0.0
2018-Jun-22 09:04N 34°24' W 119°42'0 0.0
2018-Jun-22 08:46N 34°24' W 119°42'0 0.0
2018-Jun-22 08:25N 34°24' W 119°42'0 0.0
2018-Jun-22 07:58N 34°24' W 119°42'0 0.0
2018-Jun-22 07:01N 34°24' W 119°42'0 0.0
2018-Jun-22 06:58N 34°24' W 119°42'0 0.0
2018-Jun-22 05:58N 34°24' W 119°42'0 0.0
2018-Jun-22 05:28N 34°24' W 119°42'0 0.0
2018-Jun-22 04:19N 34°24' W 119°42'0 0.0
2018-Jun-22 03:49N 34°24' W 119°42'0 0.0
2018-Jun-22 03:16N 34°24' W 119°42'0 0.0
2018-Jun-22 02:58N 34°24' W 119°42'0 0.0
2018-Jun-22 02:28N 34°24' W 119°42'0 0.0
2018-Jun-22 01:58N 34°24' W 119°42'0 0.0
2018-Jun-22 00:28N 34°24' W 119°42'0 0.0
2018-Jun-21 23:58N 34°24' W 119°42'0 0.0
2018-Jun-21 23:22N 34°24' W 119°42'0 0.0
2018-Jun-21 22:55N 34°24' W 119°42'0 0.3
2018-Jun-21 22:29N 34°24' W 119°41'6 3.8
2018-Jun-21 21:02N 34°19' W 119°41'316.9
2018-Jun-21 20:53N 34°16' W 119°41'616.9
2018-Jun-21 20:30N 34°10' W 119°41'4 7.5
2018-Jun-21 20:00N 34°06' W 119°42'0 0.7
2018-Jun-21 19:30N 34°06' W 119°41'2 2.1
2018-Jun-21 18:47N 34°07' W 119°40'510.8
2018-Jun-21 18:18N 34°12' W 119°40'515.4
2018-Jun-21 18:00N 34°17' W 119°39'5 9.5
2018-Jun-21 17:26N 34°22' W 119°40'3 0.4
2018-Jun-21 10:46N 34°24' W 119°42'0 0.0
2018-Jun-21 10:28N 34°24' W 119°42'0 0.0
2018-Jun-21 08:37N 34°24' W 119°42'0 0.0
2018-Jun-21 07:16N 34°24' W 119°42'0 0.0
2018-Jun-21 06:55N 34°24' W 119°42'0 0.0
2018-Jun-21 04:43N 34°24' W 119°42'0 0.0
2018-Jun-21 00:52N 34°24' W 119°42'0 0.0
2018-Jun-21 00:16N 34°24' W 119°42'0 0.0
2018-Jun-20 21:23N 34°24' W 119°41'814.9
2018-Jun-20 20:50N 34°16' W 119°40'512.8
2018-Jun-20 20:26N 34°11' W 119°41'410.0
2018-Jun-20 20:00N 34°07' W 119°41'1 1.8
2018-Jun-20 19:28N 34°06' W 119°40'1 2.8
2018-Jun-20 18:58N 34°08' W 119°40'816.3
2018-Jun-20 18:29N 34°15' W 119°39'2 3.1
2018-Jun-20 17:51N 34°17' W 119°39'512.1
2018-Jun-20 17:27N 34°22' W 119°39'3 1.5
2018-Jun-20 15:22N 34°24' W 119°42'0 0.0
2018-Jun-20 11:46N 34°24' W 119°42'0 0.0
2018-Jun-20 10:43N 34°24' W 119°42'0 0.0
2018-Jun-20 10:28N 34°24' W 119°42'0 0.0
2018-Jun-20 08:52N 34°24' W 119°42'0 0.0
2018-Jun-20 06:52N 34°24' W 119°42'0 0.0
2018-Jun-20 05:10N 34°24' W 119°42'0 0.0
2018-Jun-20 04:58N 34°24' W 119°42'0 0.0
2018-Jun-20 01:49N 34°24' W 119°42'0 0.0
2018-Jun-20 01:28N 34°24' W 119°42'0 0.0
2018-Jun-20 00:46N 34°24' W 119°42'0 0.0
2018-Jun-20 00:25N 34°24' W 119°42'0 0.0
2018-Jun-19 22:43N 34°24' W 119°42'1 2.9
2018-Jun-19 22:29N 34°24' W 119°41'1 1.1
2018-Jun-19 21:58N 34°24' W 119°41'0 0.2
2018-Jun-19 21:26N 34°24' W 119°42'4 7.6
2018-Jun-19 20:57N 34°21' W 119°40'612.6
2018-Jun-19 20:28N 34°15' W 119°40'814.3
2018-Jun-19 19:55N 34°07' W 119°40'0 0.4
2018-Jun-19 19:16N 34°07' W 119°40'0 0.8
2018-Jun-19 18:56N 34°06' W 119°40'1 3.0
2018-Jun-19 18:30N 34°08' W 119°40'714.9
2018-Jun-19 18:00N 34°15' W 119°40'915.1
2018-Jun-19 17:25N 34°24' W 119°40'2 1.7
2018-Jun-19 16:26N 34°24' W 119°42'0 0.0
2018-Jun-19 14:32N 34°24' W 119°42'0 0.0
2018-Jun-19 14:26N 34°24' W 119°42'0 0.0
2018-Jun-19 11:59N 34°24' W 119°42'0 0.0
2018-Jun-19 07:26N 34°24' W 119°42'0 0.0
2018-Jun-19 06:50N 34°24' W 119°42'1 0.1
2018-Jun-18 21:34N 34°24' W 119°41'216.5
2018-Jun-18 21:29N 34°23' W 119°40'916.2
2018-Jun-18 20:55N 34°14' W 119°39'812.7
2018-Jun-18 20:17N 34°06' W 119°39'0 1.3
2018-Jun-18 20:00N 34°06' W 119°39'0 0.3
2018-Jun-18 19:30N 34°06' W 119°39'1 1.9
2018-Jun-18 18:58N 34°06' W 119°40'5 9.6
2018-Jun-18 18:30N 34°11' W 119°41'1112.5
2018-Jun-18 17:37N 34°22' W 119°40'3 2.9
2018-Jun-18 16:30N 34°24' W 119°42'0 0.0
2018-Jun-18 14:09N 34°24' W 119°42'0 0.0
2018-Jun-18 13:42N 34°24' W 119°42'0 0.0
2018-Jun-18 12:27N 34°24' W 119°42'0 0.0
2018-Jun-18 11:57N 34°24' W 119°42'0 0.0
2018-Jun-18 07:45N 34°24' W 119°42'0 0.0
2018-Jun-18 07:27N 34°24' W 119°42'0 0.0
2018-Jun-18 03:42N 34°24' W 119°42'0 0.8
2018-Jun-18 03:26N 34°25' W 119°41'2 2.8
2018-Jun-18 02:49N 34°24' W 119°39'1 2.4
2018-Jun-18 02:28N 34°24' W 119°38'2 3.7
2018-Jun-18 01:55N 34°24' W 119°41'1 0.2
2018-Jun-17 22:13N 34°24' W 119°42'0 0.3
2018-Jun-17 21:45N 34°24' W 119°41'411.6
2018-Jun-17 21:22N 34°20' W 119°40'814.8
2018-Jun-17 20:50N 34°12' W 119°38'514.6
2018-Jun-17 20:30N 34°08' W 119°37'4 6.5
2018-Jun-17 19:55N 34°05' W 119°39'1 2.9
2018-Jun-17 19:27N 34°06' W 119°40'2 2.9
2018-Jun-17 18:47N 34°08' W 119°39'2 5.9
2018-Jun-17 18:25N 34°09' W 119°41'614.6
2018-Jun-17 17:59N 34°16' W 119°40'811.0
2018-Jun-17 17:17N 34°23' W 119°41'1 0.1
2018-Jun-17 07:19N 34°24' W 119°42'0 0.0
2018-Jun-17 06:52N 34°24' W 119°42'0 0.0
2018-Jun-17 06:22N 34°24' W 119°42'0 0.0
2018-Jun-17 05:46N 34°24' W 119°42'0 0.0
2018-Jun-17 04:28N 34°24' W 119°42'0 0.0
2018-Jun-17 03:49N 34°24' W 119°42'0 0.0
2018-Jun-17 03:22N 34°24' W 119°42'0 0.0
2018-Jun-17 02:58N 34°24' W 119°42'0 0.0
2018-Jun-17 02:10N 34°24' W 119°42'0 0.0
2018-Jun-17 01:43N 34°24' W 119°42'0 0.0
2018-Jun-17 00:25N 34°24' W 119°42'0 0.0
2018-Jun-16 22:10N 34°24' W 119°42'0 0.0
2018-Jun-16 21:45N 34°24' W 119°42'3 8.4
2018-Jun-16 21:26N 34°22' W 119°41'5 9.3
2018-Jun-16 20:54N 34°17' W 119°41'614.9
2018-Jun-16 20:29N 34°11' W 119°41'4 7.0
2018-Jun-16 19:58N 34°07' W 119°41'2 2.4
2018-Jun-16 19:19N 34°07' W 119°39'1 2.6
2018-Jun-16 18:57N 34°07' W 119°38'510.2
2018-Jun-16 18:25N 34°13' W 119°38'714.6
2018-Jun-16 17:57N 34°19' W 119°39'4 6.7
2018-Jun-16 17:23N 34°23' W 119°40'2 0.5
2018-Jun-16 14:00N 34°24' W 119°42'0 0.0
2018-Jun-16 13:21N 34°24' W 119°42'0 0.0
2018-Jun-16 13:00N 34°24' W 119°42'0 0.0
2018-Jun-16 11:12N 34°24' W 119°42'0 0.0
2018-Jun-16 09:51N 34°24' W 119°42'0 0.1
2018-Jun-16 09:30N 34°24' W 119°41'0 0.0
2018-Jun-16 08:30N 34°24' W 119°42'0 0.0
2018-Jun-16 05:33N 34°24' W 119°42'0 0.0
2018-Jun-16 01:48N 34°24' W 119°42'0 0.0
2018-Jun-16 00:12N 34°24' W 119°42'0 0.0
2018-Jun-15 23:48N 34°24' W 119°42'0 0.0
2018-Jun-15 21:58N 34°24' W 119°42'6 9.4
2018-Jun-15 21:21N 34°19' W 119°40'615.7
2018-Jun-15 20:58N 34°13' W 119°39'812.6
2018-Jun-15 20:21N 34°05' W 119°36'4 2.1
2018-Jun-15 18:35N 34°09' W 119°36'  
Track history (hours):
 
Tides and Currents Weather Stations Pressure Air Temp Water Temp Dewpoint Dewpoint Depression Visibility Wind Speed Wind Dir Waves Ship Positions

Condor Express

Owner: H & M Landing Inc, Santa Barbara, CA. More information available from US FCC via Universal Licensing System and Coast Guard Vessel Documentation Center.

Last reported at 2018-Jun-25 14:04 UTC. Time now 2018-Jun-25 15:47 UTC.
Position N 34°24' W 119°42'.

Length 23 m.

Type: Ship. MMSI: 367568350.

Date/timePositionNaut miles runAvg speedWind from/ knotsBaromVisibWave heightAir tempDewpointWater temp
2018-Jun-25 14:04N 34°24' W 119°42'0 0.0
2018-Jun-25 10:58N 34°24' W 119°42'0 0.0
2018-Jun-25 08:34N 34°24' W 119°42'0 0.0
2018-Jun-25 08:28N 34°24' W 119°42'0 0.0
2018-Jun-25 05:22N 34°24' W 119°42'0 0.0
2018-Jun-24 21:07N 34°24' W 119°42'0 0.0
2018-Jun-24 20:34N 34°24' W 119°42'0 0.0
2018-Jun-24 20:28N 34°24' W 119°42'0 0.0
2018-Jun-24 12:49N 34°24' W 119°42'0 0.0
2018-Jun-24 12:19N 34°24' W 119°42'0 0.0
2018-Jun-24 10:34N 34°24' W 119°42'0 0.0
2018-Jun-24 08:31N 34°24' W 119°42'0 0.0
2018-Jun-24 05:16N 34°24' W 119°42'0 0.0
2018-Jun-23 23:34N 34°24' W 119°42'0 0.0
2018-Jun-23 21:27N 34°24' W 119°42'713.3
2018-Jun-23 20:56N 34°18' W 119°42'817.8
2018-Jun-23 20:30N 34°10' W 119°43'3 4.0
2018-Jun-23 19:50N 34°07' W 119°43'1 1.9
2018-Jun-23 19:23N 34°07' W 119°42'1 2.3
2018-Jun-23 19:00N 34°08' W 119°42'6 7.9
2018-Jun-23 18:16N 34°14' W 119°40'715.7
2018-Jun-23 17:51N 34°20' W 119°40'4 3.0
2018-Jun-23 16:23N 34°24' W 119°42'0 0.0
2018-Jun-23 15:56N 34°24' W 119°42'0 0.0
2018-Jun-23 14:23N 34°24' W 119°42'0 0.0
2018-Jun-23 10:05N 34°24' W 119°42'0 0.0
2018-Jun-23 09:59N 34°24' W 119°42'0 0.0
2018-Jun-23 09:20N 34°24' W 119°42'0 0.0
2018-Jun-22 21:20N 34°24' W 119°41'617.4
2018-Jun-22 21:00N 34°19' W 119°42'917.3
2018-Jun-22 20:29N 34°10' W 119°45'4 5.9
2018-Jun-22 19:52N 34°06' W 119°45'1 1.8
2018-Jun-22 19:30N 34°07' W 119°44'3 5.2
2018-Jun-22 18:54N 34°06' W 119°40'5 8.6
2018-Jun-22 18:16N 34°12' W 119°41'615.6
2018-Jun-22 17:54N 34°18' W 119°41'510.3
2018-Jun-22 17:28N 34°22' W 119°41'3 3.2
2018-Jun-22 16:40N 34°24' W 119°42'0 0.0
2018-Jun-22 14:40N 34°24' W 119°42'0 0.0
2018-Jun-22 14:22N 34°24' W 119°42'0 0.0
2018-Jun-22 13:58N 34°24' W 119°42'0 0.0
2018-Jun-22 10:04N 34°24' W 119°42'0 0.0
2018-Jun-22 09:04N 34°24' W 119°42'0 0.0
2018-Jun-22 08:46N 34°24' W 119°42'0 0.0
2018-Jun-22 08:25N 34°24' W 119°42'0 0.0
2018-Jun-22 07:58N 34°24' W 119°42'0 0.0
2018-Jun-22 07:01N 34°24' W 119°42'0 0.0
2018-Jun-22 06:58N 34°24' W 119°42'0 0.0
2018-Jun-22 05:58N 34°24' W 119°42'0 0.0
2018-Jun-22 05:28N 34°24' W 119°42'0 0.0
2018-Jun-22 04:19N 34°24' W 119°42'0 0.0
2018-Jun-22 03:49N 34°24' W 119°42'0 0.0
2018-Jun-22 03:16N 34°24' W 119°42'0 0.0
2018-Jun-22 02:58N 34°24' W 119°42'0 0.0
2018-Jun-22 02:28N 34°24' W 119°42'0 0.0
2018-Jun-22 01:58N 34°24' W 119°42'0 0.0
2018-Jun-22 00:28N 34°24' W 119°42'0 0.0
2018-Jun-21 23:58N 34°24' W 119°42'0 0.0
2018-Jun-21 23:22N 34°24' W 119°42'0 0.0
2018-Jun-21 22:55N 34°24' W 119°42'0 0.3
2018-Jun-21 22:29N 34°24' W 119°41'6 3.8
2018-Jun-21 21:02N 34°19' W 119°41'316.9
2018-Jun-21 20:53N 34°16' W 119°41'616.9
2018-Jun-21 20:30N 34°10' W 119°41'4 7.5
2018-Jun-21 20:00N 34°06' W 119°42'0 0.7
2018-Jun-21 19:30N 34°06' W 119°41'2 2.1
2018-Jun-21 18:47N 34°07' W 119°40'510.8
2018-Jun-21 18:18N 34°12' W 119°40'515.4
2018-Jun-21 18:00N 34°17' W 119°39'5 9.5
2018-Jun-21 17:26N 34°22' W 119°40'3 0.4
2018-Jun-21 10:46N 34°24' W 119°42'0 0.0
2018-Jun-21 10:28N 34°24' W 119°42'0 0.0
2018-Jun-21 08:37N 34°24' W 119°42'0 0.0
2018-Jun-21 07:16N 34°24' W 119°42'0 0.0
2018-Jun-21 06:55N 34°24' W 119°42'0 0.0
2018-Jun-21 04:43N 34°24' W 119°42'0 0.0
2018-Jun-21 00:52N 34°24' W 119°42'0 0.0
2018-Jun-21 00:16N 34°24' W 119°42'0 0.0
2018-Jun-20 21:23N 34°24' W 119°41'814.9
2018-Jun-20 20:50N 34°16' W 119°40'512.8
2018-Jun-20 20:26N 34°11' W 119°41'410.0
2018-Jun-20 20:00N 34°07' W 119°41'1 1.8
2018-Jun-20 19:28N 34°06' W 119°40'1 2.8
2018-Jun-20 18:58N 34°08' W 119°40'816.3
2018-Jun-20 18:29N 34°15' W 119°39'2 3.1
2018-Jun-20 17:51N 34°17' W 119°39'512.1
2018-Jun-20 17:27N 34°22' W 119°39'3 1.5
2018-Jun-20 15:22N 34°24' W 119°42'0 0.0
2018-Jun-20 11:46N 34°24' W 119°42'0 0.0
2018-Jun-20 10:43N 34°24' W 119°42'0 0.0
2018-Jun-20 10:28N 34°24' W 119°42'0 0.0
2018-Jun-20 08:52N 34°24' W 119°42'0 0.0
2018-Jun-20 06:52N 34°24' W 119°42'0 0.0
2018-Jun-20 05:10N 34°24' W 119°42'0 0.0
2018-Jun-20 04:58N 34°24' W 119°42'0 0.0
2018-Jun-20 01:49N 34°24' W 119°42'0 0.0
2018-Jun-20 01:28N 34°24' W 119°42'0 0.0
2018-Jun-20 00:46N 34°24' W 119°42'0 0.0
2018-Jun-20 00:25N 34°24' W 119°42'0 0.0
2018-Jun-19 22:43N 34°24' W 119°42'1 2.9
2018-Jun-19 22:29N 34°24' W 119°41'1 1.1
2018-Jun-19 21:58N 34°24' W 119°41'0 0.2
2018-Jun-19 21:26N 34°24' W 119°42'4 7.6
2018-Jun-19 20:57N 34°21' W 119°40'612.6
2018-Jun-19 20:28N 34°15' W 119°40'814.3
2018-Jun-19 19:55N 34°07' W 119°40'0 0.4
2018-Jun-19 19:16N 34°07' W 119°40'0 0.8
2018-Jun-19 18:56N 34°06' W 119°40'1 3.0
2018-Jun-19 18:30N 34°08' W 119°40'714.9
2018-Jun-19 18:00N 34°15' W 119°40'915.1
2018-Jun-19 17:25N 34°24' W 119°40'2 1.7
2018-Jun-19 16:26N 34°24' W 119°42'0 0.0
2018-Jun-19 14:32N 34°24' W 119°42'0 0.0
2018-Jun-19 14:26N 34°24' W 119°42'0 0.0
2018-Jun-19 11:59N 34°24' W 119°42'0 0.0
2018-Jun-19 07:26N 34°24' W 119°42'0 0.0
2018-Jun-19 06:50N 34°24' W 119°42'1 0.1
2018-Jun-18 21:34N 34°24' W 119°41'216.5
2018-Jun-18 21:29N 34°23' W 119°40'916.2
2018-Jun-18 20:55N 34°14' W 119°39'812.7
2018-Jun-18 20:17N 34°06' W 119°39'0 1.3
2018-Jun-18 20:00N 34°06' W 119°39'0 0.3
2018-Jun-18 19:30N 34°06' W 119°39'1 1.9
2018-Jun-18 18:58N 34°06' W 119°40'5 9.6
2018-Jun-18 18:30N 34°11' W 119°41'1112.5
2018-Jun-18 17:37N 34°22' W 119°40'3 2.9
2018-Jun-18 16:30N 34°24' W 119°42'0 0.0
2018-Jun-18 14:09N 34°24' W 119°42'0 0.0
2018-Jun-18 13:42N 34°24' W 119°42'0 0.0
2018-Jun-18 12:27N 34°24' W 119°42'0 0.0
2018-Jun-18 11:57N 34°24' W 119°42'0 0.0
2018-Jun-18 07:45N 34°24' W 119°42'0 0.0
2018-Jun-18 07:27N 34°24' W 119°42'0 0.0
2018-Jun-18 03:42N 34°24' W 119°42'0 0.8
2018-Jun-18 03:26N 34°25' W 119°41'2 2.8
2018-Jun-18 02:49N 34°24' W 119°39'1 2.4
2018-Jun-18 02:28N 34°24' W 119°38'2 3.7
2018-Jun-18 01:55N 34°24' W 119°41'1 0.2
2018-Jun-17 22:13N 34°24' W 119°42'0 0.3
2018-Jun-17 21:45N 34°24' W 119°41'411.6
2018-Jun-17 21:22N 34°20' W 119°40'814.8
2018-Jun-17 20:50N 34°12' W 119°38'514.6
2018-Jun-17 20:30N 34°08' W 119°37'4 6.5
2018-Jun-17 19:55N 34°05' W 119°39'1 2.9
2018-Jun-17 19:27N 34°06' W 119°40'2 2.9
2018-Jun-17 18:47N 34°08' W 119°39'2 5.9
2018-Jun-17 18:25N 34°09' W 119°41'614.6
2018-Jun-17 17:59N 34°16' W 119°40'811.0
2018-Jun-17 17:17N 34°23' W 119°41'1 0.1
2018-Jun-17 07:19N 34°24' W 119°42'0 0.0
2018-Jun-17 06:52N 34°24' W 119°42'0 0.0
2018-Jun-17 06:22N 34°24' W 119°42'0 0.0
2018-Jun-17 05:46N 34°24' W 119°42'0 0.0
2018-Jun-17 04:28N 34°24' W 119°42'0 0.0
2018-Jun-17 03:49N 34°24' W 119°42'0 0.0
2018-Jun-17 03:22N 34°24' W 119°42'0 0.0
2018-Jun-17 02:58N 34°24' W 119°42'0 0.0
2018-Jun-17 02:10N 34°24' W 119°42'0 0.0
2018-Jun-17 01:43N 34°24' W 119°42'0 0.0
2018-Jun-17 00:25N 34°24' W 119°42'0 0.0
2018-Jun-16 22:10N 34°24' W 119°42'0 0.0
2018-Jun-16 21:45N 34°24' W 119°42'3 8.4
2018-Jun-16 21:26N 34°22' W 119°41'5 9.3
2018-Jun-16 20:54N 34°17' W 119°41'614.9
2018-Jun-16 20:29N 34°11' W 119°41'4 7.0
2018-Jun-16 19:58N 34°07' W 119°41'2 2.4
2018-Jun-16 19:19N 34°07' W 119°39'1 2.6
2018-Jun-16 18:57N 34°07' W 119°38'510.2
2018-Jun-16 18:25N 34°13' W 119°38'714.6
2018-Jun-16 17:57N 34°19' W 119°39'4 6.7
2018-Jun-16 17:23N 34°23' W 119°40'2 0.5
2018-Jun-16 14:00N 34°24' W 119°42'0 0.0
2018-Jun-16 13:21N 34°24' W 119°42'0 0.0
2018-Jun-16 13:00N 34°24' W 119°42'0 0.0
2018-Jun-16 11:12N 34°24' W 119°42'0 0.0
2018-Jun-16 09:51N 34°24' W 119°42'0 0.1
2018-Jun-16 09:30N 34°24' W 119°41'0 0.0
2018-Jun-16 08:30N 34°24' W 119°42'0 0.0
2018-Jun-16 05:33N 34°24' W 119°42'0 0.0
2018-Jun-16 01:48N 34°24' W 119°42'0 0.0
2018-Jun-16 00:12N 34°24' W 119°42'0 0.0
2018-Jun-15 23:48N 34°24' W 119°42'0 0.0
2018-Jun-15 21:58N 34°24' W 119°42'6 9.4
2018-Jun-15 21:21N 34°19' W 119°40'615.7
2018-Jun-15 20:58N 34°13' W 119°39'812.6
2018-Jun-15 20:21N 34°05' W 119°36'4 2.1
2018-Jun-15 18:35N 34°09' W 119°36'  

Dump ship's entire track history